Terminal Aerodrome Forecast
Issued by NWS

Home | Current Version | Previous Version | Text Only | Print | Product List | Glossary On
Versions: 1 2 3 4 5 6 7 8 9 10 11 12 13 14 15 16 17 18 19 20 21 22 23 24 25 26 27
000
FTUS44 KFWD 280305 AAA
TAFGKY
TAF AMD
KGKY 280305Z 2803/2824 17012KT P6SM SCT250
     FM280800 22009KT P6SM SCT035
     FM281000 34010KT P6SM VCTS BKN020CB
     FM281300 34012KT P6SM BKN015
     FM281800 35011KT P6SM BKN025
     FM282000 36009KT P6SM BKN045=

USA.gov is the U.S. government's official web portal to all federal, state and local government web resources and services.